sensor_id;sensor_type;location;lat;lon;timestamp;temperature;humidity
71184;DHT22;58887;51.980;4.464;2023-08-17T00:01:48;19.10;74.06
71184;DHT22;58887;51.980;4.464;2023-08-17T00:04:16;18.98;74.58
71184;DHT22;58887;51.980;4.464;2023-08-17T00:06:42;19.00;74.36
71184;DHT22;58887;51.980;4.464;2023-08-17T00:09:09;19.06;74.36
71184;DHT22;58887;51.980;4.464;2023-08-17T00:11:37;19.03;74.36
71184;DHT22;58887;51.980;4.464;2023-08-17T00:14:24;18.98;74.15
71184;DHT22;58887;51.980;4.464;2023-08-17T00:16:50;18.97;74.28
71184;DHT22;58887;51.980;4.464;2023-08-17T00:19:16;18.97;74.29
71184;DHT22;58887;51.980;4.464;2023-08-17T00:21:44;19.00;74.35
71184;DHT22;58887;51.980;4.464;2023-08-17T00:24:10;18.96;74.41
71184;DHT22;58887;51.980;4.464;2023-08-17T00:26:35;19.01;74.34
71184;DHT22;58887;51.980;4.464;2023-08-17T00:29:01;19.00;74.24
71184;DHT22;58887;51.980;4.464;2023-08-17T00:31:26;19.03;74.32
71184;DHT22;58887;51.980;4.464;2023-08-17T00:33:52;18.97;74.39
71184;DHT22;58887;51.980;4.464;2023-08-17T00:36:18;18.93;74.47
71184;DHT22;58887;51.980;4.464;2023-08-17T00:38:43;18.90;74.56
71184;DHT22;58887;51.980;4.464;2023-08-17T00:41:08;18.81;74.73
71184;DHT22;58887;51.980;4.464;2023-08-17T00:43:34;18.86;74.62
71184;DHT22;58887;51.980;4.464;2023-08-17T00:46:00;18.83;74.79
71184;DHT22;58887;51.980;4.464;2023-08-17T00:48:26;18.80;74.69
71184;DHT22;58887;51.980;4.464;2023-08-17T00:50:53;18.84;74.55
71184;DHT22;58887;51.980;4.464;2023-08-17T00:53:20;18.84;74.44
71184;DHT22;58887;51.980;4.464;2023-08-17T00:55:46;18.84;74.43
71184;DHT22;58887;51.980;4.464;2023-08-17T00:58:12;18.86;74.52
71184;DHT22;58887;51.980;4.464;2023-08-17T01:00:37;18.86;74.57
71184;DHT22;58887;51.980;4.464;2023-08-17T01:03:03;18.81;74.51
71184;DHT22;58887;51.980;4.464;2023-08-17T01:05:30;18.81;74.65
71184;DHT22;58887;51.980;4.464;2023-08-17T01:07:58;18.79;74.37
71184;DHT22;58887;51.980;4.464;2023-08-17T01:10:47;18.83;74.35
71184;DHT22;58887;51.980;4.464;2023-08-17T01:13:24;18.79;74.02
71184;DHT22;58887;51.980;4.464;2023-08-17T01:15:56;18.71;73.82
71184;DHT22;58887;51.980;4.464;2023-08-17T01:18:28;18.60;73.89
71184;DHT22;58887;51.980;4.464;2023-08-17T01:20:56;18.64;73.67
71184;DHT22;58887;51.980;4.464;2023-08-17T01:23:21;18.61;73.87
71184;DHT22;58887;51.980;4.464;2023-08-17T01:25:49;18.66;73.51
71184;DHT22;58887;51.980;4.464;2023-08-17T01:28:14;18.67;73.53
71184;DHT22;58887;51.980;4.464;2023-08-17T01:31:05;18.63;73.77
71184;DHT22;58887;51.980;4.464;2023-08-17T01:33:50;18.53;73.88
71184;DHT22;58887;51.980;4.464;2023-08-17T01:36:25;18.46;74.14
71184;DHT22;58887;51.980;4.464;2023-08-17T01:38:53;18.49;74.02
71184;DHT22;58887;51.980;4.464;2023-08-17T01:41:23;18.50;73.95
71184;DHT22;58887;51.980;4.464;2023-08-17T01:43:50;18.55;73.85
71184;DHT22;58887;51.980;4.464;2023-08-17T01:46:16;18.45;74.11
71184;DHT22;58887;51.980;4.464;2023-08-17T01:48:46;18.39;73.95
71184;DHT22;58887;51.980;4.464;2023-08-17T01:51:18;18.33;74.09
71184;DHT22;58887;51.980;4.464;2023-08-17T01:53:46;18.30;74.18
71184;DHT22;58887;51.980;4.464;2023-08-17T01:56:36;18.32;74.00
71184;DHT22;58887;51.980;4.464;2023-08-17T01:59:02;18.33;73.73
71184;DHT22;58887;51.980;4.464;2023-08-17T02:01:27;18.29;73.57
71184;DHT22;58887;51.980;4.464;2023-08-17T02:03:53;18.33;73.72
71184;DHT22;58887;51.980;4.464;2023-08-17T02:06:19;18.30;73.70
71184;DHT22;58887;51.980;4.464;2023-08-17T02:08:45;18.24;73.55
71184;DHT22;58887;51.980;4.464;2023-08-17T02:11:11;18.26;73.44
71184;DHT22;58887;51.980;4.464;2023-08-17T02:13:37;18.24;73.60
71184;DHT22;58887;51.980;4.464;2023-08-17T02:16:06;18.09;73.76
71184;DHT22;58887;51.980;4.464;2023-08-17T02:18:31;18.08;73.64
71184;DHT22;58887;51.980;4.464;2023-08-17T02:20:58;18.12;73.51
71184;DHT22;58887;51.980;4.464;2023-08-17T02:23:24;18.08;73.65
71184;DHT22;58887;51.980;4.464;2023-08-17T02:25:50;18.09;73.64
71184;DHT22;58887;51.980;4.464;2023-08-17T02:28:15;18.05;73.46
71184;DHT22;58887;51.980;4.464;2023-08-17T02:30:41;17.97;73.44
71184;DHT22;58887;51.980;4.464;2023-08-17T02:33:07;17.98;73.48
71184;DHT22;58887;51.980;4.464;2023-08-17T02:35:33;18.00;73.39
71184;DHT22;58887;51.980;4.464;2023-08-17T02:37:58;17.94;73.36
71184;DHT22;58887;51.980;4.464;2023-08-17T02:40:24;17.97;73.26
71184;DHT22;58887;51.980;4.464;2023-08-17T02:42:49;17.95;73.20
71184;DHT22;58887;51.980;4.464;2023-08-17T02:45:15;17.94;73.33
71184;DHT22;58887;51.980;4.464;2023-08-17T02:47:40;17.92;72.96
71184;DHT22;58887;51.980;4.464;2023-08-17T02:50:07;17.82;73.41
71184;DHT22;58887;51.980;4.464;2023-08-17T02:52:33;17.81;73.26
71184;DHT22;58887;51.980;4.464;2023-08-17T02:54:59;17.74;73.40
71184;DHT22;58887;51.980;4.464;2023-08-17T02:57:24;17.77;73.51
71184;DHT22;58887;51.980;4.464;2023-08-17T02:59:50;17.78;73.58
71184;DHT22;58887;51.980;4.464;2023-08-17T03:02:15;17.80;73.82
71184;DHT22;58887;51.980;4.464;2023-08-17T03:04:41;17.87;73.77
71184;DHT22;58887;51.980;4.464;2023-08-17T03:07:08;17.85;74.03
71184;DHT22;58887;51.980;4.464;2023-08-17T03:09:33;17.90;74.12
71184;DHT22;58887;51.980;4.464;2023-08-17T03:11:59;17.91;74.29
71184;DHT22;58887;51.980;4.464;2023-08-17T03:14:24;17.94;74.48
71184;DHT22;58887;51.980;4.464;2023-08-17T03:16:50;18.01;74.20
71184;DHT22;58887;51.980;4.464;2023-08-17T03:19:15;17.95;74.49
71184;DHT22;58887;51.980;4.464;2023-08-17T03:21:41;18.04;74.19
71184;DHT22;58887;51.980;4.464;2023-08-17T03:24:06;18.06;74.35
71184;DHT22;58887;51.980;4.464;2023-08-17T03:26:32;18.08;74.35
71184;DHT22;58887;51.980;4.464;2023-08-17T03:28:58;18.05;74.55
71184;DHT22;58887;51.980;4.464;2023-08-17T03:31:23;18.02;74.77
71184;DHT22;58887;51.980;4.464;2023-08-17T03:33:49;18.02;74.84
71184;DHT22;58887;51.980;4.464;2023-08-17T03:36:15;17.95;75.05
71184;DHT22;58887;51.980;4.464;2023-08-17T03:38:40;17.92;75.28
71184;DHT22;58887;51.980;4.464;2023-08-17T03:41:06;17.81;75.56
71184;DHT22;58887;51.980;4.464;2023-08-17T03:43:32;17.84;75.53
71184;DHT22;58887;51.980;4.464;2023-08-17T03:45:57;17.85;75.67
71184;DHT22;58887;51.980;4.464;2023-08-17T03:48:23;17.82;75.80
71184;DHT22;58887;51.980;4.464;2023-08-17T03:50:53;17.77;76.05
71184;DHT22;58887;51.980;4.464;2023-08-17T03:53:19;17.73;76.30
71184;DHT22;58887;51.980;4.464;2023-08-17T03:55:49;17.70;76.40
71184;DHT22;58887;51.980;4.464;2023-08-17T03:58:16;17.70;76.45
71184;DHT22;58887;51.980;4.464;2023-08-17T04:00:42;17.74;76.32
71184;DHT22;58887;51.980;4.464;2023-08-17T04:03:08;17.74;76.70
71184;DHT22;58887;51.980;4.464;2023-08-17T04:05:33;17.67;76.93
71184;DHT22;58887;51.980;4.464;2023-08-17T04:08:00;17.70;76.84
71184;DHT22;58887;51.980;4.464;2023-08-17T04:10:28;17.75;76.56
71184;DHT22;58887;51.980;4.464;2023-08-17T04:12:54;17.80;76.77
71184;DHT22;58887;51.980;4.464;2023-08-17T04:15:19;17.81;76.76
71184;DHT22;58887;51.980;4.464;2023-08-17T04:17:45;17.78;76.76
71184;DHT22;58887;51.980;4.464;2023-08-17T04:20:11;17.84;76.66
71184;DHT22;58887;51.980;4.464;2023-08-17T04:22:37;17.85;76.51
71184;DHT22;58887;51.980;4.464;2023-08-17T04:25:02;17.80;76.55
71184;DHT22;58887;51.980;4.464;2023-08-17T04:27:28;17.71;76.66
71184;DHT22;58887;51.980;4.464;2023-08-17T04:29:53;17.80;76.69
71184;DHT22;58887;51.980;4.464;2023-08-17T04:32:19;17.81;76.58
71184;DHT22;58887;51.980;4.464;2023-08-17T04:34:45;17.84;76.48
71184;DHT22;58887;51.980;4.464;2023-08-17T04:37:11;17.85;76.31
71184;DHT22;58887;51.980;4.464;2023-08-17T04:39:37;17.98;76.23
71184;DHT22;58887;51.980;4.464;2023-08-17T04:42:03;18.01;76.04
71184;DHT22;58887;51.980;4.464;2023-08-17T04:44:29;18.05;76.05
71184;DHT22;58887;51.980;4.464;2023-08-17T04:46:54;18.02;76.00
71184;DHT22;58887;51.980;4.464;2023-08-17T04:49:19;18.08;76.07
71184;DHT22;58887;51.980;4.464;2023-08-17T04:51:45;18.04;76.23
71184;DHT22;58887;51.980;4.464;2023-08-17T04:54:10;18.12;76.20
71184;DHT22;58887;51.980;4.464;2023-08-17T04:56:36;18.19;76.00
71184;DHT22;58887;51.980;4.464;2023-08-17T04:59:01;18.16;75.85
71184;DHT22;58887;51.980;4.464;2023-08-17T05:01:27;18.24;75.74
71184;DHT22;58887;51.980;4.464;2023-08-17T05:03:52;18.39;75.32
71184;DHT22;58887;51.980;4.464;2023-08-17T05:06:19;18.29;75.67
71184;DHT22;58887;51.980;4.464;2023-08-17T05:08:44;18.29;75.86
71184;DHT22;58887;51.980;4.464;2023-08-17T05:11:10;18.32;75.84
71184;DHT22;58887;51.980;4.464;2023-08-17T05:13:35;18.36;75.59
71184;DHT22;58887;51.980;4.464;2023-08-17T05:16:01;18.35;75.88
71184;DHT22;58887;51.980;4.464;2023-08-17T05:18:26;18.40;75.80
71184;DHT22;58887;51.980;4.464;2023-08-17T05:20:52;18.42;75.54
71184;DHT22;58887;51.980;4.464;2023-08-17T05:23:17;18.48;75.49
71184;DHT22;58887;51.980;4.464;2023-08-17T05:25:46;18.52;75.42
71184;DHT22;58887;51.980;4.464;2023-08-17T05:28:13;18.42;75.31
71184;DHT22;58887;51.980;4.464;2023-08-17T05:30:38;18.38;75.74
71184;DHT22;58887;51.980;4.464;2023-08-17T05:33:04;18.35;76.11
71184;DHT22;58887;51.980;4.464;2023-08-17T05:35:31;18.40;75.99
71184;DHT22;58887;51.980;4.464;2023-08-17T05:37:56;18.32;76.18
71184;DHT22;58887;51.980;4.464;2023-08-17T05:40:22;18.30;76.07
71184;DHT22;58887;51.980;4.464;2023-08-17T05:42:49;18.28;76.36
71184;DHT22;58887;51.980;4.464;2023-08-17T05:45:15;18.39;75.98
71184;DHT22;58887;51.980;4.464;2023-08-17T05:47:40;18.42;75.96
71184;DHT22;58887;51.980;4.464;2023-08-17T05:50:06;18.53;76.06
71184;DHT22;58887;51.980;4.464;2023-08-17T05:52:32;18.53;76.03
71184;DHT22;58887;51.980;4.464;2023-08-17T05:54:57;18.55;75.46
71184;DHT22;58887;51.980;4.464;2023-08-17T05:57:23;18.61;75.66
71184;DHT22;58887;51.980;4.464;2023-08-17T05:59:48;18.69;75.16
71184;DHT22;58887;51.980;4.464;2023-08-17T06:02:14;18.61;75.37
71184;DHT22;58887;51.980;4.464;2023-08-17T06:04:39;18.64;74.94
71184;DHT22;58887;51.980;4.464;2023-08-17T06:07:06;18.76;75.20
71184;DHT22;58887;51.980;4.464;2023-08-17T06:09:31;18.77;75.00
71184;DHT22;58887;51.980;4.464;2023-08-17T06:11:57;18.74;75.07
71184;DHT22;58887;51.980;4.464;2023-08-17T06:14:22;18.80;74.78
71184;DHT22;58887;51.980;4.464;2023-08-17T06:16:48;18.89;74.84
71184;DHT22;58887;51.980;4.464;2023-08-17T06:19:13;18.89;74.65
71184;DHT22;58887;51.980;4.464;2023-08-17T06:21:39;18.89;74.83
71184;DHT22;58887;51.980;4.464;2023-08-17T06:24:04;18.94;74.90
71184;DHT22;58887;51.980;4.464;2023-08-17T06:26:30;18.94;74.38
71184;DHT22;58887;51.980;4.464;2023-08-17T06:28:56;18.94;74.79
71184;DHT22;58887;51.980;4.464;2023-08-17T06:31:22;18.90;74.98
71184;DHT22;58887;51.980;4.464;2023-08-17T06:33:55;18.97;75.01
71184;DHT22;58887;51.980;4.464;2023-08-17T06:36:20;19.15;74.85
71184;DHT22;58887;51.980;4.464;2023-08-17T06:38:46;19.32;74.36
71184;DHT22;58887;51.980;4.464;2023-08-17T06:41:11;19.54;73.70
71184;DHT22;58887;51.980;4.464;2023-08-17T06:43:37;19.47;73.46
71184;DHT22;58887;51.980;4.464;2023-08-17T06:46:02;19.48;73.45
71184;DHT22;58887;51.980;4.464;2023-08-17T06:48:28;19.38;73.74
71184;DHT22;58887;51.980;4.464;2023-08-17T06:50:54;19.42;73.65
71184;DHT22;58887;51.980;4.464;2023-08-17T06:53:19;19.45;73.58
71184;DHT22;58887;51.980;4.464;2023-08-17T06:55:45;19.56;73.36
71184;DHT22;58887;51.980;4.464;2023-08-17T06:58:10;19.62;73.35
71184;DHT22;58887;51.980;4.464;2023-08-17T07:00:36;19.78;72.85
71184;DHT22;58887;51.980;4.464;2023-08-17T07:03:04;19.73;72.79
71184;DHT22;58887;51.980;4.464;2023-08-17T07:05:29;19.72;72.67
71184;DHT22;58887;51.980;4.464;2023-08-17T07:07:55;19.82;72.80
71184;DHT22;58887;51.980;4.464;2023-08-17T07:10:21;19.92;72.29
71184;DHT22;58887;51.980;4.464;2023-08-17T07:12:46;20.07;71.64
71184;DHT22;58887;51.980;4.464;2023-08-17T07:15:12;20.28;71.68
71184;DHT22;58887;51.980;4.464;2023-08-17T07:17:38;20.54;71.41
71184;DHT22;58887;51.980;4.464;2023-08-17T07:20:04;20.68;70.99
71184;DHT22;58887;51.980;4.464;2023-08-17T07:22:30;20.91;70.35
71184;DHT22;58887;51.980;4.464;2023-08-17T07:24:56;21.07;69.71
71184;DHT22;58887;51.980;4.464;2023-08-17T07:27:21;20.96;69.07
71184;DHT22;58887;51.980;4.464;2023-08-17T07:29:47;20.94;69.59
71184;DHT22;58887;51.980;4.464;2023-08-17T07:32:12;20.94;69.25
71184;DHT22;58887;51.980;4.464;2023-08-17T07:34:38;21.03;69.38
71184;DHT22;58887;51.980;4.464;2023-08-17T07:37:04;21.05;68.91
71184;DHT22;58887;51.980;4.464;2023-08-17T07:39:30;21.00;69.34
71184;DHT22;58887;51.980;4.464;2023-08-17T07:41:55;21.03;69.34
71184;DHT22;58887;51.980;4.464;2023-08-17T07:44:21;21.13;69.39
71184;DHT22;58887;51.980;4.464;2023-08-17T07:46:46;21.23;68.74
71184;DHT22;58887;51.980;4.464;2023-08-17T07:49:11;21.22;68.83
71184;DHT22;58887;51.980;4.464;2023-08-17T07:51:37;21.26;69.61
71184;DHT22;58887;51.980;4.464;2023-08-17T07:54:02;21.20;69.42
71184;DHT22;58887;51.980;4.464;2023-08-17T07:56:28;21.44;69.09
71184;DHT22;58887;51.980;4.464;2023-08-17T07:58:54;21.44;68.58
71184;DHT22;58887;51.980;4.464;2023-08-17T08:01:20;21.22;68.20
71184;DHT22;58887;51.980;4.464;2023-08-17T08:03:45;21.15;68.97
71184;DHT22;58887;51.980;4.464;2023-08-17T08:06:11;21.12;69.27
71184;DHT22;58887;51.980;4.464;2023-08-17T08:08:38;21.07;68.85
71184;DHT22;58887;51.980;4.464;2023-08-17T08:11:03;21.27;68.38
71184;DHT22;58887;51.980;4.464;2023-08-17T08:13:30;21.42;68.04
71184;DHT22;58887;51.980;4.464;2023-08-17T08:15:56;21.67;67.68
71184;DHT22;58887;51.980;4.464;2023-08-17T08:18:21;22.06;67.07
71184;DHT22;58887;51.980;4.464;2023-08-17T08:20:48;22.16;66.21
71184;DHT22;58887;51.980;4.464;2023-08-17T08:23:13;22.39;65.61
71184;DHT22;58887;51.980;4.464;2023-08-17T08:25:39;22.69;64.95
71184;DHT22;58887;51.980;4.464;2023-08-17T08:28:04;22.76;64.32
71184;DHT22;58887;51.980;4.464;2023-08-17T08:30:30;22.86;64.03
71184;DHT22;58887;51.980;4.464;2023-08-17T08:32:56;22.91;63.42
71184;DHT22;58887;51.980;4.464;2023-08-17T08:35:23;23.03;63.47
71184;DHT22;58887;51.980;4.464;2023-08-17T08:37:50;23.07;62.95
71184;DHT22;58887;51.980;4.464;2023-08-17T08:40:17;23.15;63.07
71184;DHT22;58887;51.980;4.464;2023-08-17T08:42:43;22.74;64.35
71184;DHT22;58887;51.980;4.464;2023-08-17T08:45:09;22.76;64.82
71184;DHT22;58887;51.980;4.464;2023-08-17T08:47:36;23.10;64.31
71184;DHT22;58887;51.980;4.464;2023-08-17T08:50:04;23.18;63.65
71184;DHT22;58887;51.980;4.464;2023-08-17T08:52:35;23.40;62.85
71184;DHT22;58887;51.980;4.464;2023-08-17T08:55:12;23.59;63.04
71184;DHT22;58887;51.980;4.464;2023-08-17T08:57:41;23.71;61.92
71184;DHT22;58887;51.980;4.464;2023-08-17T09:00:08;24.02;62.13
71184;DHT22;58887;51.980;4.464;2023-08-17T09:02:35;23.83;61.95
71184;DHT22;58887;51.980;4.464;2023-08-17T09:05:01;24.13;60.61
71184;DHT22;58887;51.980;4.464;2023-08-17T09:07:29;24.12;60.42
71184;DHT22;58887;51.980;4.464;2023-08-17T09:10:10;24.41;59.70
71184;DHT22;58887;51.980;4.464;2023-08-17T09:12:36;24.74;60.75
71184;DHT22;58887;51.980;4.464;2023-08-17T09:15:02;25.15;59.24
71184;DHT22;58887;51.980;4.464;2023-08-17T09:17:28;25.18;57.70
71184;DHT22;58887;51.980;4.464;2023-08-17T09:19:54;25.23;58.30
71184;DHT22;58887;51.980;4.464;2023-08-17T09:22:44;25.36;57.88
71184;DHT22;58887;51.980;4.464;2023-08-17T09:25:10;25.45;56.68
71184;DHT22;58887;51.980;4.464;2023-08-17T09:27:37;25.51;56.10
71184;DHT22;58887;51.980;4.464;2023-08-17T09:30:05;25.93;56.99
71184;DHT22;58887;51.980;4.464;2023-08-17T09:32:32;25.90;55.58
71184;DHT22;58887;51.980;4.464;2023-08-17T09:35:01;25.83;56.17
71184;DHT22;58887;51.980;4.464;2023-08-17T09:37:27;25.78;55.69
71184;DHT22;58887;51.980;4.464;2023-08-17T09:39:53;25.62;55.98
71184;DHT22;58887;51.980;4.464;2023-08-17T09:42:20;25.71;55.83
71184;DHT22;58887;51.980;4.464;2023-08-17T09:44:47;25.47;56.48
71184;DHT22;58887;51.980;4.464;2023-08-17T09:47:12;25.35;56.54
71184;DHT22;58887;51.980;4.464;2023-08-17T09:49:38;25.76;56.21
71184;DHT22;58887;51.980;4.464;2023-08-17T09:52:04;25.49;56.32
71184;DHT22;58887;51.980;4.464;2023-08-17T09:54:31;25.62;56.14
71184;DHT22;58887;51.980;4.464;2023-08-17T09:57:00;25.26;57.39
71184;DHT22;58887;51.980;4.464;2023-08-17T09:59:27;25.83;56.58
71184;DHT22;58887;51.980;4.464;2023-08-17T10:01:54;26.51;57.85
71184;DHT22;58887;51.980;4.464;2023-08-17T10:04:22;26.49;55.48
71184;DHT22;58887;51.980;4.464;2023-08-17T10:06:52;26.76;53.68
71184;DHT22;58887;51.980;4.464;2023-08-17T10:09:24;25.87;55.32
71184;DHT22;58887;51.980;4.464;2023-08-17T10:11:52;25.87;56.43
71184;DHT22;58887;51.980;4.464;2023-08-17T10:14:26;26.71;56.11
71184;DHT22;58887;51.980;4.464;2023-08-17T10:17:05;27.00;55.09
71184;DHT22;58887;51.980;4.464;2023-08-17T10:19:54;27.22;52.99
71184;DHT22;58887;51.980;4.464;2023-08-17T10:22:46;27.65;53.73
71184;DHT22;58887;51.980;4.464;2023-08-17T10:25:16;27.74;52.46
71184;DHT22;58887;51.980;4.464;2023-08-17T10:27:42;27.41;52.75
71184;DHT22;58887;51.980;4.464;2023-08-17T10:30:10;26.75;53.32
71184;DHT22;58887;51.980;4.464;2023-08-17T10:32:38;27.17;53.61
71184;DHT22;58887;51.980;4.464;2023-08-17T10:35:08;27.96;51.28
71184;DHT22;58887;51.980;4.464;2023-08-17T10:37:34;27.91;50.50
71184;DHT22;58887;51.980;4.464;2023-08-17T10:40:00;28.32;50.11
71184;DHT22;58887;51.980;4.464;2023-08-17T10:42:36;29.15;50.21
71184;DHT22;58887;51.980;4.464;2023-08-17T10:47:48;27.22;52.65
71184;DHT22;58887;51.980;4.464;2023-08-17T10:50:21;27.75;51.04
71184;DHT22;58887;51.980;4.464;2023-08-17T10:52:49;28.08;50.82
71184;DHT22;58887;51.980;4.464;2023-08-17T10:55:15;27.27;51.51
71184;DHT22;58887;51.980;4.464;2023-08-17T10:57:41;26.65;53.40
71184;DHT22;58887;51.980;4.464;2023-08-17T11:08:05;27.74;52.63
71184;DHT22;58887;51.980;4.464;2023-08-17T11:10:31;28.77;49.59
71184;DHT22;58887;51.980;4.464;2023-08-17T11:12:57;28.95;49.03
71184;DHT22;58887;51.980;4.464;2023-08-17T11:15:40;27.78;50.52
71184;DHT22;58887;51.980;4.464;2023-08-17T11:18:09;27.96;50.64
71184;DHT22;58887;51.980;4.464;2023-08-17T11:20:37;27.69;50.92
71184;DHT22;58887;51.980;4.464;2023-08-17T11:23:04;28.13;51.13
71184;DHT22;58887;51.980;4.464;2023-08-17T11:25:32;29.00;50.96
71184;DHT22;58887;51.980;4.464;2023-08-17T11:28:02;28.13;49.95
71184;DHT22;58887;51.980;4.464;2023-08-17T11:30:29;27.68;51.13
71184;DHT22;58887;51.980;4.464;2023-08-17T11:33:00;27.89;51.06
71184;DHT22;58887;51.980;4.464;2023-08-17T11:35:25;27.75;51.11
71184;DHT22;58887;51.980;4.464;2023-08-17T11:37:51;27.92;50.98
71184;DHT22;58887;51.980;4.464;2023-08-17T11:40:17;29.16;49.38
71184;DHT22;58887;51.980;4.464;2023-08-17T11:42:44;29.72;48.04
71184;DHT22;58887;51.980;4.464;2023-08-17T11:45:10;28.82;48.54
71184;DHT22;58887;51.980;4.464;2023-08-17T11:47:42;28.06;51.08
71184;DHT22;58887;51.980;4.464;2023-08-17T11:50:10;27.61;52.21
71184;DHT22;58887;51.980;4.464;2023-08-17T11:52:37;28.03;51.83
71184;DHT22;58887;51.980;4.464;2023-08-17T11:55:07;27.78;51.49
71184;DHT22;58887;51.980;4.464;2023-08-17T11:57:34;27.66;51.89
71184;DHT22;58887;51.980;4.464;2023-08-17T12:00:01;28.30;50.29
71184;DHT22;58887;51.980;4.464;2023-08-17T12:02:27;28.36;49.65
71184;DHT22;58887;51.980;4.464;2023-08-17T12:04:54;28.16;50.52
71184;DHT22;58887;51.980;4.464;2023-08-17T12:07:23;27.93;52.02
71184;DHT22;58887;51.980;4.464;2023-08-17T12:09:51;27.72;52.73
71184;DHT22;58887;51.980;4.464;2023-08-17T12:12:24;27.41;53.37
71184;DHT22;58887;51.980;4.464;2023-08-17T12:14:49;27.31;53.33
71184;DHT22;58887;51.980;4.464;2023-08-17T12:17:16;27.00;52.90
71184;DHT22;58887;51.980;4.464;2023-08-17T12:19:43;26.78;55.36
71184;DHT22;58887;51.980;4.464;2023-08-17T12:22:10;26.52;54.27
71184;DHT22;58887;51.980;4.464;2023-08-17T12:24:38;26.09;55.92
71184;DHT22;58887;51.980;4.464;2023-08-17T12:27:05;25.96;56.59
71184;DHT22;58887;51.980;4.464;2023-08-17T12:29:30;26.15;56.48
71184;DHT22;58887;51.980;4.464;2023-08-17T12:32:02;26.31;56.59
71184;DHT22;58887;51.980;4.464;2023-08-17T12:34:28;26.41;55.64
71184;DHT22;58887;51.980;4.464;2023-08-17T12:36:53;26.46;56.14
71184;DHT22;58887;51.980;4.464;2023-08-17T12:39:19;26.46;55.66
71184;DHT22;58887;51.980;4.464;2023-08-17T12:41:45;26.32;55.53
71184;DHT22;58887;51.980;4.464;2023-08-17T12:44:10;26.29;56.47
71184;DHT22;58887;51.980;4.464;2023-08-17T12:46:40;26.39;56.63
71184;DHT22;58887;51.980;4.464;2023-08-17T12:49:07;26.45;55.50
71184;DHT22;58887;51.980;4.464;2023-08-17T12:51:33;26.34;56.93
71184;DHT22;58887;51.980;4.464;2023-08-17T12:53:59;26.49;56.68
71184;DHT22;58887;51.980;4.464;2023-08-17T12:56:24;26.78;55.06
71184;DHT22;58887;51.980;4.464;2023-08-17T12:58:50;26.56;55.38
71184;DHT22;58887;51.980;4.464;2023-08-17T13:01:15;26.25;56.37
71184;DHT22;58887;51.980;4.464;2023-08-17T13:03:41;25.91;57.12
71184;DHT22;58887;51.980;4.464;2023-08-17T13:06:07;25.53;58.08
71184;DHT22;58887;51.980;4.464;2023-08-17T13:08:32;25.08;59.04
71184;DHT22;58887;51.980;4.464;2023-08-17T13:10:58;25.16;59.04
71184;DHT22;58887;51.980;4.464;2023-08-17T13:13:23;25.60;58.44
71184;DHT22;58887;51.980;4.464;2023-08-17T13:15:49;26.55;55.94
71184;DHT22;58887;51.980;4.464;2023-08-17T13:18:15;26.32;56.28
71184;DHT22;58887;51.980;4.464;2023-08-17T13:20:40;25.90;57.30
71184;DHT22;58887;51.980;4.464;2023-08-17T13:23:06;25.65;58.21
71184;DHT22;58887;51.980;4.464;2023-08-17T13:25:32;25.76;58.66
71184;DHT22;58887;51.980;4.464;2023-08-17T13:27:57;25.87;57.43
71184;DHT22;58887;51.980;4.464;2023-08-17T13:30:23;25.84;57.29
71184;DHT22;58887;51.980;4.464;2023-08-17T13:32:48;26.25;57.19
71184;DHT22;58887;51.980;4.464;2023-08-17T13:35:14;26.38;56.15
71184;DHT22;58887;51.980;4.464;2023-08-17T13:37:40;26.01;56.92
71184;DHT22;58887;51.980;4.464;2023-08-17T13:40:06;25.90;56.99
71184;DHT22;58887;51.980;4.464;2023-08-17T13:42:33;25.57;58.88
71184;DHT22;58887;51.980;4.464;2023-08-17T13:44:59;25.28;58.35
71184;DHT22;58887;51.980;4.464;2023-08-17T13:47:26;25.19;58.82
71184;DHT22;58887;51.980;4.464;2023-08-17T13:49:51;25.12;59.39
71184;DHT22;58887;51.980;4.464;2023-08-17T13:52:17;24.69;60.29
71184;DHT22;58887;51.980;4.464;2023-08-17T13:54:44;24.64;60.55
71184;DHT22;58887;51.980;4.464;2023-08-17T13:57:10;24.75;60.91
71184;DHT22;58887;51.980;4.464;2023-08-17T13:59:36;24.87;59.98
71184;DHT22;58887;51.980;4.464;2023-08-17T14:02:01;24.77;60.61
71184;DHT22;58887;51.980;4.464;2023-08-17T14:04:27;24.75;60.57
71184;DHT22;58887;51.980;4.464;2023-08-17T14:06:52;24.65;61.10
71184;DHT22;58887;51.980;4.464;2023-08-17T14:09:18;24.50;61.76
71184;DHT22;58887;51.980;4.464;2023-08-17T14:11:44;24.12;62.28
71184;DHT22;58887;51.980;4.464;2023-08-17T14:14:11;24.12;61.62
71184;DHT22;58887;51.980;4.464;2023-08-17T14:16:36;24.06;62.67
71184;DHT22;58887;51.980;4.464;2023-08-17T14:19:02;24.10;62.81
71184;DHT22;58887;51.980;4.464;2023-08-17T14:21:27;24.16;62.16
71184;DHT22;58887;51.980;4.464;2023-08-17T14:23:53;24.08;62.21
71184;DHT22;58887;51.980;4.464;2023-08-17T14:26:18;23.98;62.70
71184;DHT22;58887;51.980;4.464;2023-08-17T14:28:44;24.02;63.02
71184;DHT22;58887;51.980;4.464;2023-08-17T14:31:09;24.08;62.25
71184;DHT22;58887;51.980;4.464;2023-08-17T14:33:37;23.88;63.29
71184;DHT22;58887;51.980;4.464;2023-08-17T14:36:02;23.68;63.01
71184;DHT22;58887;51.980;4.464;2023-08-17T14:38:28;23.50;63.83
71184;DHT22;58887;51.980;4.464;2023-08-17T14:40:53;23.47;63.55
71184;DHT22;58887;51.980;4.464;2023-08-17T14:43:19;23.48;64.15
71184;DHT22;58887;51.980;4.464;2023-08-17T14:45:44;23.55;64.99
71184;DHT22;58887;51.980;4.464;2023-08-17T14:48:10;23.61;64.07
71184;DHT22;58887;51.980;4.464;2023-08-17T14:50:36;23.62;63.22
71184;DHT22;58887;51.980;4.464;2023-08-17T14:53:03;23.61;63.69
71184;DHT22;58887;51.980;4.464;2023-08-17T14:55:30;23.58;63.61
71184;DHT22;58887;51.980;4.464;2023-08-17T14:57:56;23.71;63.71
71184;DHT22;58887;51.980;4.464;2023-08-17T15:00:24;23.66;63.36
71184;DHT22;58887;51.980;4.464;2023-08-17T15:02:50;23.51;63.83
71184;DHT22;58887;51.980;4.464;2023-08-17T15:05:15;23.51;63.90
71184;DHT22;58887;51.980;4.464;2023-08-17T15:07:41;23.34;64.86
71184;DHT22;58887;51.980;4.464;2023-08-17T15:10:07;23.35;64.50
71184;DHT22;58887;51.980;4.464;2023-08-17T15:12:33;23.28;64.84
71184;DHT22;58887;51.980;4.464;2023-08-17T15:14:58;23.31;65.32
71184;DHT22;58887;51.980;4.464;2023-08-17T15:17:24;23.22;65.29
71184;DHT22;58887;51.980;4.464;2023-08-17T15:19:50;23.17;65.15
71184;DHT22;58887;51.980;4.464;2023-08-17T15:22:16;23.22;65.61
71184;DHT22;58887;51.980;4.464;2023-08-17T15:24:43;23.31;65.02
71184;DHT22;58887;51.980;4.464;2023-08-17T15:27:09;23.25;65.39
71184;DHT22;58887;51.980;4.464;2023-08-17T15:29:34;23.31;65.53
71184;DHT22;58887;51.980;4.464;2023-08-17T15:32:01;23.17;65.35
71184;DHT22;58887;51.980;4.464;2023-08-17T15:34:26;23.22;65.82
71184;DHT22;58887;51.980;4.464;2023-08-17T15:36:52;23.31;65.27
71184;DHT22;58887;51.980;4.464;2023-08-17T15:39:17;23.32;65.77